Terminal Aerodrome Forecast
Issued by NWS

Home | Current Version | Previous Version | Text Only | Print | Product List | Glossary On
Versions: 1 2 3 4 5 6 7 8 9 10 11 12 13 14 15 16 17 18 19 20 21 22 23 24 25
000
FTUS44 KOUN 271720
TAFGAG
TAF
KGAG 271720Z 2718/2818 19008KT P6SM FEW250
     FM272100 17011KT P6SM VCTS SCT050CB SCT120 BKN250
      TEMPO 2800/2803 4SM -TSRA BKN050CB
     FM280300 18009KT P6SM VCSH BKN120 OVC200
     FM280600 18006KT P6SM BKN120 BKN250=

USA.gov is the U.S. government's official web portal to all federal, state and local government web resources and services.